KAXH

Houston-Southwest Airport

Houston, Texas, USA

KAXH 110855Z AUTO 21014KT 10SM CLR 02/01 A3035 RMK AO2 T00210007

Observed Flight Rules
Dec-11 @ 08:55 UTC (23 minutes ago) Visual Flight Rules
Wind Visibility Clouds
210° at 14 knots 10 miles
  • Clear skies
Temperatures Readings
Current 2°C / 36°F
Dewpoint 1°C / 34°F
Humidity 93%
Altimeter 30.35" Hg
Pressure 1028 hPa
Elevation 21
Observed Flight Rules
Dec-11 @ 08:55 UTC
(23 minutes ago)
VFR
Wind Visibility
210° at 14 knots 10 miles
Clouds
  • Clear skies
Temperature Dewpoint
2°C / 36°F 1°C / 34°F
Humidity Altimeter Pressure
93% 30.35" Hg 1028 hPa